Ek-star — LAMT5 — position and weather

sailwx.info

Track history (hours):
 
Tides and Currents Weather Stations Pressure Air Temp Water Temp Dewpoint Dewpoint Depression Visibility Wind Speed Wind Dir Waves Ship Positions

Ek-star

Last reported at 2017-Jul-24 06:57 UTC. Time now 2017-Jul-24 16:51 UTC.
Position N 53°54' E 007°49'.

Length 135 m; draft 6.1 m.

Type: Tanker. MMSI: 257433000.

Date/timePositionNaut miles runAvg speedWind from/ knotsBaromVisibWave heightAir tempDewpointWater temp
2017-Jul-24 06:57N 53°54' E 007°49'0 0.1
2017-Jul-24 05:18N 53°54' E 007°48'0 0.0
2017-Jul-24 04:48N 53°54' E 007°48'0 0.0
2017-Jul-24 02:12N 53°54' E 007°48'0 0.0
2017-Jul-24 00:45N 53°54' E 007°48'0 0.1
2017-Jul-23 23:33N 53°54' E 007°49'0 0.0
2017-Jul-23 23:21N 53°54' E 007°49'0 0.0
2017-Jul-23 23:00N 53°54' E 007°49'0 0.0
2017-Jul-23 22:21N 53°54' E 007°49'0 0.0
2017-Jul-23 21:21N 53°54' E 007°49'0 0.0
2017-Jul-23 21:00N 53°54' E 007°49'0 0.0
2017-Jul-23 13:12N 53°54' E 007°48'0 0.0
2017-Jul-23 09:52N 53°54' E 007°49'0 0.0
2017-Jul-23 09:22N 53°54' E 007°49'0 0.0
2017-Jul-23 08:49N 53°54' E 007°49'0 0.1
2017-Jul-23 08:25N 53°54' E 007°49'0 0.0
2017-Jul-23 07:55N 53°54' E 007°49'0 0.0
2017-Jul-23 07:28N 53°54' E 007°49'0 0.0
2017-Jul-23 06:52N 53°54' E 007°49'0 0.0
2017-Jul-23 06:19N 53°54' E 007°49'0 0.1
2017-Jul-23 05:52N 53°54' E 007°49'0 0.2
2017-Jul-23 05:16N 53°55' E 007°48'0 0.2
2017-Jul-23 04:49N 53°54' E 007°48'0 0.0
2017-Jul-23 04:19N 53°54' E 007°48'0 0.0
2017-Jul-23 03:55N 53°54' E 007°48'0 0.0
2017-Jul-23 03:11N 53°54' E 007°48'0 1.3
2017-Jul-23 02:55N 53°54' E 007°48'7 6.4
2017-Jul-23 01:50N 53°58' E 007°37'511.5
2017-Jul-23 01:22N 54°02' E 007°33'511.6
2017-Jul-23 00:58N 54°07' E 007°29'24912.2
2017-Jul-22 04:30N 54°25' E 000°24'612.4
2017-Jul-22 04:00N 54°27' E 000°14'612.3
2017-Jul-22 03:31N 54°29' E 000°04'612.5
2017-Jul-22 03:00N 54°30' W 000°07'612.7
2017-Jul-22 02:30N 54°32' W 000°17'612.9
2017-Jul-22 02:00N 54°34' W 000°28'1413.4
2017-Jul-22 00:59N 54°38' W 000°51'812.6
2017-Jul-22 00:18N 54°40' W 001°05'2 0.1
2017-Jul-21 06:58N 54°42' W 001°07'4 9.7
2017-Jul-21 06:30N 54°47' W 001°08'1 1.7
2017-Jul-21 05:47N 54°47' W 001°09'0 0.0
2017-Jul-21 05:23N 54°47' W 001°09'0 0.0
2017-Jul-21 04:53N 54°47' W 001°09'0 0.0
2017-Jul-21 04:23N 54°47' W 001°09'0 0.0
2017-Jul-21 03:56N 54°47' W 001°09'0 0.0
2017-Jul-21 03:26N 54°47' W 001°09'0 0.0
2017-Jul-21 02:56N 54°47' W 001°09'0 0.1
2017-Jul-21 02:23N 54°47' W 001°09'0 0.2
2017-Jul-21 01:56N 54°47' W 001°09'0 0.0
2017-Jul-21 01:26N 54°47' W 001°09'0 0.0
2017-Jul-21 00:59N 54°47' W 001°09'0 0.0
2017-Jul-21 00:29N 54°47' W 001°09'0 0.0
2017-Jul-20 23:59N 54°47' W 001°09'0 0.0
2017-Jul-20 23:29N 54°47' W 001°09'0 0.1
2017-Jul-20 22:59N 54°47' W 001°09'0 0.1
2017-Jul-20 22:29N 54°47' W 001°09'0 0.1
2017-Jul-20 21:47N 54°47' W 001°09'0 0.0
2017-Jul-20 21:29N 54°47' W 001°09'0 0.0
2017-Jul-20 20:47N 54°47' W 001°09'0 0.0
2017-Jul-20 20:17N 54°47' W 001°09'0 0.1
2017-Jul-20 19:59N 54°47' W 001°09'0 0.0
2017-Jul-20 19:29N 54°47' W 001°09'0 0.0
2017-Jul-20 18:44N 54°47' W 001°09'0 0.1
2017-Jul-20 18:17N 54°47' W 001°09'0 0.0
2017-Jul-20 17:50N 54°47' W 001°09'0 0.0
2017-Jul-20 16:47N 54°47' W 001°09'0 0.1
2017-Jul-20 16:23N 54°47' W 001°09'0 0.2
2017-Jul-20 15:53N 54°47' W 001°09'0 0.1
2017-Jul-20 15:20N 54°47' W 001°09'0 0.1
2017-Jul-20 14:53N 54°47' W 001°09'0 0.0
2017-Jul-20 13:56N 54°47' W 001°09'0 0.0
2017-Jul-20 13:23N 54°47' W 001°09'0 0.1
2017-Jul-20 12:56N 54°47' W 001°09'0 0.1
2017-Jul-20 12:26N 54°47' W 001°09'0 0.1
2017-Jul-20 11:56N 54°47' W 001°09'0 0.1
2017-Jul-20 11:29N 54°47' W 001°09'0 0.0
2017-Jul-20 10:59N 54°47' W 001°09'0 0.0
2017-Jul-20 10:29N 54°47' W 001°09'0 0.1
2017-Jul-20 09:59N 54°47' W 001°09'0 0.1
2017-Jul-20 09:29N 54°47' W 001°09'0 0.2
2017-Jul-20 08:59N 54°47' W 001°09'0 0.1
2017-Jul-20 08:24N 54°47' W 001°09'0 0.0
2017-Jul-20 07:57N 54°47' W 001°09'0 0.1
2017-Jul-20 07:30N 54°47' W 001°09'0 0.0
2017-Jul-20 07:00N 54°47' W 001°09'0 0.0
2017-Jul-20 06:30N 54°47' W 001°09'0 0.0
2017-Jul-20 06:00N 54°47' W 001°09'0 0.0
2017-Jul-20 05:30N 54°47' W 001°09'0 0.0
2017-Jul-20 05:00N 54°47' W 001°09'0 0.0
2017-Jul-20 04:30N 54°47' W 001°09'0 0.0
2017-Jul-20 04:00N 54°47' W 001°09'0 0.0
2017-Jul-20 03:30N 54°47' W 001°09'0 0.0
2017-Jul-20 03:00N 54°47' W 001°09'0 0.1
2017-Jul-20 02:30N 54°47' W 001°09'0 0.1
2017-Jul-20 01:48N 54°47' W 001°09'0 0.0
2017-Jul-20 00:39N 54°47' W 001°09'0 0.1
2017-Jul-20 00:24N 54°47' W 001°09'0 0.0
2017-Jul-19 23:48N 54°47' W 001°09'0 0.1
2017-Jul-19 23:24N 54°47' W 001°09'0 0.1
2017-Jul-19 22:51N 54°47' W 001°09'0 0.1
2017-Jul-19 22:24N 54°47' W 001°09'0 0.1
2017-Jul-19 21:57N 54°47' W 001°09'0 0.0
2017-Jul-19 21:27N 54°47' W 001°09'0 0.0
2017-Jul-19 20:57N 54°47' W 001°09'0 0.0
2017-Jul-19 20:27N 54°47' W 001°09'0 0.0
2017-Jul-19 19:57N 54°47' W 001°09'0 0.0
2017-Jul-19 19:30N 54°47' W 001°09'0 0.0
2017-Jul-19 19:00N 54°47' W 001°09'0 0.0
2017-Jul-19 18:30N 54°47' W 001°09'0 0.0
2017-Jul-19 18:00N 54°47' W 001°09'0 0.0
2017-Jul-19 17:27N 54°47' W 001°09'0 0.0
2017-Jul-19 17:00N 54°47' W 001°09'0 0.0
2017-Jul-19 16:30N 54°47' W 001°09'0 0.0
2017-Jul-19 15:45N 54°47' W 001°09'0 0.1
2017-Jul-19 15:30N 54°47' W 001°09'0 0.0
2017-Jul-19 15:00N 54°47' W 001°09'0 0.0
2017-Jul-19 14:30N 54°47' W 001°09'0 0.0
2017-Jul-19 14:00N 54°47' W 001°09'0 0.0
2017-Jul-19 13:30N 54°47' W 001°09'0 0.0
2017-Jul-19 13:00N 54°47' W 001°09'0 0.0
2017-Jul-19 12:21N 54°47' W 001°09'0 0.1
2017-Jul-19 11:48N 54°47' W 001°09'0 0.1
2017-Jul-19 11:29N 54°47' W 001°09'0 0.0
2017-Jul-19 10:59N 54°47' W 001°09'0 0.1
2017-Jul-19 10:29N 54°47' W 001°09'0 0.0
2017-Jul-19 09:50N 54°47' W 001°09'0 0.0
2017-Jul-19 09:20N 54°47' W 001°09'0 0.0
2017-Jul-19 08:47N 54°47' W 001°09'0 0.0
2017-Jul-19 08:23N 54°47' W 001°09'0 0.0
2017-Jul-19 07:53N 54°47' W 001°09'0 0.0
2017-Jul-19 07:20N 54°47' W 001°09'0 0.0
2017-Jul-19 06:53N 54°47' W 001°09'0 0.0
2017-Jul-19 06:23N 54°47' W 001°09'0 0.0
2017-Jul-19 05:53N 54°47' W 001°09'0 0.0
2017-Jul-19 05:23N 54°47' W 001°09'0 0.0
2017-Jul-19 04:53N 54°47' W 001°09'0 0.0
2017-Jul-19 04:26N 54°47' W 001°09'0 0.0
2017-Jul-19 03:56N 54°47' W 001°09'0 0.0
2017-Jul-19 03:26N 54°47' W 001°09'0 0.0
2017-Jul-19 02:56N 54°47' W 001°09'0 0.0
2017-Jul-19 02:29N 54°47' W 001°09'0 0.0
2017-Jul-19 01:59N 54°47' W 001°09'0 0.1
2017-Jul-19 01:29N 54°47' W 001°09'0 0.0
2017-Jul-19 00:59N 54°47' W 001°09'0 0.0
2017-Jul-19 00:29N 54°47' W 001°09'0 0.1
2017-Jul-18 23:59N 54°47' W 001°09'0 0.0
2017-Jul-18 23:29N 54°47' W 001°09'0 0.1
2017-Jul-18 22:56N 54°47' W 001°09'0 0.1
2017-Jul-18 22:29N 54°47' W 001°09'0 0.0
2017-Jul-18 21:59N 54°47' W 001°09'0 0.0
2017-Jul-18 21:29N 54°47' W 001°09'0 0.1
2017-Jul-18 20:59N 54°47' W 001°09'0 0.0
2017-Jul-18 20:29N 54°47' W 001°09'0 0.0
2017-Jul-18 19:50N 54°47' W 001°09'0 0.0
2017-Jul-18 19:20N 54°47' W 001°09'0 0.0
2017-Jul-18 18:50N 54°47' W 001°09'0 0.0
2017-Jul-18 18:23N 54°47' W 001°09'0 0.0
2017-Jul-18 17:53N 54°47' W 001°09'0 0.0
2017-Jul-18 17:23N 54°47' W 001°09'0 0.0
2017-Jul-18 16:53N 54°47' W 001°09'0 0.0
2017-Jul-18 16:23N 54°47' W 001°09'0 0.0
2017-Jul-18 15:50N 54°47' W 001°09'0 0.0
2017-Jul-18 15:26N 54°47' W 001°09'0 0.0
2017-Jul-18 14:56N 54°47' W 001°09'0 0.1
2017-Jul-18 13:54N 54°47' W 001°09'3 7.5
2017-Jul-18 13:30N 54°45' W 001°08'6 0.3
2017-Jul-17 17:07N 54°45' W 000°58'1 8.4
2017-Jul-17 17:00N 54°45' W 000°56'5 9.9
2017-Jul-17 16:29N 54°48' W 000°49'1612.3
2017-Jul-17 15:10N 54°55' W 000°24'412.5
2017-Jul-17 14:51N 54°57' W 000°17'40212.7
2017-Jul-16 07:04N 58°02' E 010°30'113.7
2017-Jul-16 07:00N 58°03' E 010°31'713.4
2017-Jul-16 06:30N 58°06' E 010°42'713.2
2017-Jul-16 05:58N 58°09' E 010°54'613.2
2017-Jul-16 05:30N 58°12' E 011°04'612.8
2017-Jul-16 05:00N 58°16' E 011°14'510.5
2017-Jul-16 04:30N 58°19' E 011°22'3 0.2
2017-Jul-15 10:03N 58°21' E 011°26'0 0.4
2017-Jul-15 09:59N 58°21' E 011°26'2 4.6
2017-Jul-15 09:30N 58°20' E 011°23'713.8
2017-Jul-15 09:00N 58°15' E 011°13'4 8.0
2017-Jul-15 08:30N 58°11' E 011°12'0 0.1
2017-Jul-15 07:57N 58°11' E 011°12'0 0.0
2017-Jul-15 06:09N 58°11' E 011°12'0 0.0
2017-Jul-15 05:03N 58°11' E 011°12'0 0.0
2017-Jul-15 02:17N 58°11' E 011°12'0 0.0
2017-Jul-15 01:50N 58°11' E 011°12'0 0.0
2017-Jul-15 01:20N 58°11' E 011°12'0 0.0
2017-Jul-14 16:02N 58°11' E 011°12'0 1.8
2017-Jul-14 16:00N 58°11' E 011°12'610.8
2017-Jul-14 15:29N 58°06' E 011°13'613.3
2017-Jul-14 15:00N 57°59' E 011°16'713.6
2017-Jul-14 14:29N 57°53' E 011°20'713.8
2017-Jul-14 14:00N 57°46' E 011°23'713.2
2017-Jul-14 13:30N 57°40' E 011°27'612.3
2017-Jul-14 13:00N 57°36' E 011°36'510.2
2017-Jul-14 12:30N 57°39' E 011°44'5 8.9
2017-Jul-14 11:58N 57°41' E 011°52'0 0.0
2017-Jul-14 11:28N 57°41' E 011°52'0 0.0
2017-Jul-14 10:58N 57°41' E 011°52'0 0.0
2017-Jul-14 10:28N 57°41' E 011°52'0 0.0
2017-Jul-14 09:58N 57°41' E 011°52'0 0.0
2017-Jul-14 09:28N 57°41' E 011°52'0 0.0
2017-Jul-14 08:58N 57°41' E 011°52'0 0.0
2017-Jul-14 08:28N 57°41' E 011°52'0 0.0
2017-Jul-14 07:58N 57°41' E 011°52'0 0.0
2017-Jul-14 07:28N 57°41' E 011°52'0 0.0
2017-Jul-14 06:58N 57°41' E 011°52'  
Track history (hours):
 
Tides and Currents Weather Stations Pressure Air Temp Water Temp Dewpoint Dewpoint Depression Visibility Wind Speed Wind Dir Waves Ship Positions

Ek-star

Last reported at 2017-Jul-24 06:57 UTC. Time now 2017-Jul-24 16:51 UTC.
Position N 53°54' E 007°49'.

Length 135 m; draft 6.1 m.

Type: Tanker. MMSI: 257433000.

Date/timePositionNaut miles runAvg speedWind from/ knotsBaromVisibWave heightAir tempDewpointWater temp
2017-Jul-24 06:57N 53°54' E 007°49'0 0.1
2017-Jul-24 05:18N 53°54' E 007°48'0 0.0
2017-Jul-24 04:48N 53°54' E 007°48'0 0.0
2017-Jul-24 02:12N 53°54' E 007°48'0 0.0
2017-Jul-24 00:45N 53°54' E 007°48'0 0.1
2017-Jul-23 23:33N 53°54' E 007°49'0 0.0
2017-Jul-23 23:21N 53°54' E 007°49'0 0.0
2017-Jul-23 23:00N 53°54' E 007°49'0 0.0
2017-Jul-23 22:21N 53°54' E 007°49'0 0.0
2017-Jul-23 21:21N 53°54' E 007°49'0 0.0
2017-Jul-23 21:00N 53°54' E 007°49'0 0.0
2017-Jul-23 13:12N 53°54' E 007°48'0 0.0
2017-Jul-23 09:52N 53°54' E 007°49'0 0.0
2017-Jul-23 09:22N 53°54' E 007°49'0 0.0
2017-Jul-23 08:49N 53°54' E 007°49'0 0.1
2017-Jul-23 08:25N 53°54' E 007°49'0 0.0
2017-Jul-23 07:55N 53°54' E 007°49'0 0.0
2017-Jul-23 07:28N 53°54' E 007°49'0 0.0
2017-Jul-23 06:52N 53°54' E 007°49'0 0.0
2017-Jul-23 06:19N 53°54' E 007°49'0 0.1
2017-Jul-23 05:52N 53°54' E 007°49'0 0.2
2017-Jul-23 05:16N 53°55' E 007°48'0 0.2
2017-Jul-23 04:49N 53°54' E 007°48'0 0.0
2017-Jul-23 04:19N 53°54' E 007°48'0 0.0
2017-Jul-23 03:55N 53°54' E 007°48'0 0.0
2017-Jul-23 03:11N 53°54' E 007°48'0 1.3
2017-Jul-23 02:55N 53°54' E 007°48'7 6.4
2017-Jul-23 01:50N 53°58' E 007°37'511.5
2017-Jul-23 01:22N 54°02' E 007°33'511.6
2017-Jul-23 00:58N 54°07' E 007°29'24912.2
2017-Jul-22 04:30N 54°25' E 000°24'612.4
2017-Jul-22 04:00N 54°27' E 000°14'612.3
2017-Jul-22 03:31N 54°29' E 000°04'612.5
2017-Jul-22 03:00N 54°30' W 000°07'612.7
2017-Jul-22 02:30N 54°32' W 000°17'612.9
2017-Jul-22 02:00N 54°34' W 000°28'1413.4
2017-Jul-22 00:59N 54°38' W 000°51'812.6
2017-Jul-22 00:18N 54°40' W 001°05'2 0.1
2017-Jul-21 06:58N 54°42' W 001°07'4 9.7
2017-Jul-21 06:30N 54°47' W 001°08'1 1.7
2017-Jul-21 05:47N 54°47' W 001°09'0 0.0
2017-Jul-21 05:23N 54°47' W 001°09'0 0.0
2017-Jul-21 04:53N 54°47' W 001°09'0 0.0
2017-Jul-21 04:23N 54°47' W 001°09'0 0.0
2017-Jul-21 03:56N 54°47' W 001°09'0 0.0
2017-Jul-21 03:26N 54°47' W 001°09'0 0.0
2017-Jul-21 02:56N 54°47' W 001°09'0 0.1
2017-Jul-21 02:23N 54°47' W 001°09'0 0.2
2017-Jul-21 01:56N 54°47' W 001°09'0 0.0
2017-Jul-21 01:26N 54°47' W 001°09'0 0.0
2017-Jul-21 00:59N 54°47' W 001°09'0 0.0
2017-Jul-21 00:29N 54°47' W 001°09'0 0.0
2017-Jul-20 23:59N 54°47' W 001°09'0 0.0
2017-Jul-20 23:29N 54°47' W 001°09'0 0.1
2017-Jul-20 22:59N 54°47' W 001°09'0 0.1
2017-Jul-20 22:29N 54°47' W 001°09'0 0.1
2017-Jul-20 21:47N 54°47' W 001°09'0 0.0
2017-Jul-20 21:29N 54°47' W 001°09'0 0.0
2017-Jul-20 20:47N 54°47' W 001°09'0 0.0
2017-Jul-20 20:17N 54°47' W 001°09'0 0.1
2017-Jul-20 19:59N 54°47' W 001°09'0 0.0
2017-Jul-20 19:29N 54°47' W 001°09'0 0.0
2017-Jul-20 18:44N 54°47' W 001°09'0 0.1
2017-Jul-20 18:17N 54°47' W 001°09'0 0.0
2017-Jul-20 17:50N 54°47' W 001°09'0 0.0
2017-Jul-20 16:47N 54°47' W 001°09'0 0.1
2017-Jul-20 16:23N 54°47' W 001°09'0 0.2
2017-Jul-20 15:53N 54°47' W 001°09'0 0.1
2017-Jul-20 15:20N 54°47' W 001°09'0 0.1
2017-Jul-20 14:53N 54°47' W 001°09'0 0.0
2017-Jul-20 13:56N 54°47' W 001°09'0 0.0
2017-Jul-20 13:23N 54°47' W 001°09'0 0.1
2017-Jul-20 12:56N 54°47' W 001°09'0 0.1
2017-Jul-20 12:26N 54°47' W 001°09'0 0.1
2017-Jul-20 11:56N 54°47' W 001°09'0 0.1
2017-Jul-20 11:29N 54°47' W 001°09'0 0.0
2017-Jul-20 10:59N 54°47' W 001°09'0 0.0
2017-Jul-20 10:29N 54°47' W 001°09'0 0.1
2017-Jul-20 09:59N 54°47' W 001°09'0 0.1
2017-Jul-20 09:29N 54°47' W 001°09'0 0.2
2017-Jul-20 08:59N 54°47' W 001°09'0 0.1
2017-Jul-20 08:24N 54°47' W 001°09'0 0.0
2017-Jul-20 07:57N 54°47' W 001°09'0 0.1
2017-Jul-20 07:30N 54°47' W 001°09'0 0.0
2017-Jul-20 07:00N 54°47' W 001°09'0 0.0
2017-Jul-20 06:30N 54°47' W 001°09'0 0.0
2017-Jul-20 06:00N 54°47' W 001°09'0 0.0
2017-Jul-20 05:30N 54°47' W 001°09'0 0.0
2017-Jul-20 05:00N 54°47' W 001°09'0 0.0
2017-Jul-20 04:30N 54°47' W 001°09'0 0.0
2017-Jul-20 04:00N 54°47' W 001°09'0 0.0
2017-Jul-20 03:30N 54°47' W 001°09'0 0.0
2017-Jul-20 03:00N 54°47' W 001°09'0 0.1
2017-Jul-20 02:30N 54°47' W 001°09'0 0.1
2017-Jul-20 01:48N 54°47' W 001°09'0 0.0
2017-Jul-20 00:39N 54°47' W 001°09'0 0.1
2017-Jul-20 00:24N 54°47' W 001°09'0 0.0
2017-Jul-19 23:48N 54°47' W 001°09'0 0.1
2017-Jul-19 23:24N 54°47' W 001°09'0 0.1
2017-Jul-19 22:51N 54°47' W 001°09'0 0.1
2017-Jul-19 22:24N 54°47' W 001°09'0 0.1
2017-Jul-19 21:57N 54°47' W 001°09'0 0.0
2017-Jul-19 21:27N 54°47' W 001°09'0 0.0
2017-Jul-19 20:57N 54°47' W 001°09'0 0.0
2017-Jul-19 20:27N 54°47' W 001°09'0 0.0
2017-Jul-19 19:57N 54°47' W 001°09'0 0.0
2017-Jul-19 19:30N 54°47' W 001°09'0 0.0
2017-Jul-19 19:00N 54°47' W 001°09'0 0.0
2017-Jul-19 18:30N 54°47' W 001°09'0 0.0
2017-Jul-19 18:00N 54°47' W 001°09'0 0.0
2017-Jul-19 17:27N 54°47' W 001°09'0 0.0
2017-Jul-19 17:00N 54°47' W 001°09'0 0.0
2017-Jul-19 16:30N 54°47' W 001°09'0 0.0
2017-Jul-19 15:45N 54°47' W 001°09'0 0.1
2017-Jul-19 15:30N 54°47' W 001°09'0 0.0
2017-Jul-19 15:00N 54°47' W 001°09'0 0.0
2017-Jul-19 14:30N 54°47' W 001°09'0 0.0
2017-Jul-19 14:00N 54°47' W 001°09'0 0.0
2017-Jul-19 13:30N 54°47' W 001°09'0 0.0
2017-Jul-19 13:00N 54°47' W 001°09'0 0.0
2017-Jul-19 12:21N 54°47' W 001°09'0 0.1
2017-Jul-19 11:48N 54°47' W 001°09'0 0.1
2017-Jul-19 11:29N 54°47' W 001°09'0 0.0
2017-Jul-19 10:59N 54°47' W 001°09'0 0.1
2017-Jul-19 10:29N 54°47' W 001°09'0 0.0
2017-Jul-19 09:50N 54°47' W 001°09'0 0.0
2017-Jul-19 09:20N 54°47' W 001°09'0 0.0
2017-Jul-19 08:47N 54°47' W 001°09'0 0.0
2017-Jul-19 08:23N 54°47' W 001°09'0 0.0
2017-Jul-19 07:53N 54°47' W 001°09'0 0.0
2017-Jul-19 07:20N 54°47' W 001°09'0 0.0
2017-Jul-19 06:53N 54°47' W 001°09'0 0.0
2017-Jul-19 06:23N 54°47' W 001°09'0 0.0
2017-Jul-19 05:53N 54°47' W 001°09'0 0.0
2017-Jul-19 05:23N 54°47' W 001°09'0 0.0
2017-Jul-19 04:53N 54°47' W 001°09'0 0.0
2017-Jul-19 04:26N 54°47' W 001°09'0 0.0
2017-Jul-19 03:56N 54°47' W 001°09'0 0.0
2017-Jul-19 03:26N 54°47' W 001°09'0 0.0
2017-Jul-19 02:56N 54°47' W 001°09'0 0.0
2017-Jul-19 02:29N 54°47' W 001°09'0 0.0
2017-Jul-19 01:59N 54°47' W 001°09'0 0.1
2017-Jul-19 01:29N 54°47' W 001°09'0 0.0
2017-Jul-19 00:59N 54°47' W 001°09'0 0.0
2017-Jul-19 00:29N 54°47' W 001°09'0 0.1
2017-Jul-18 23:59N 54°47' W 001°09'0 0.0
2017-Jul-18 23:29N 54°47' W 001°09'0 0.1
2017-Jul-18 22:56N 54°47' W 001°09'0 0.1
2017-Jul-18 22:29N 54°47' W 001°09'0 0.0
2017-Jul-18 21:59N 54°47' W 001°09'0 0.0
2017-Jul-18 21:29N 54°47' W 001°09'0 0.1
2017-Jul-18 20:59N 54°47' W 001°09'0 0.0
2017-Jul-18 20:29N 54°47' W 001°09'0 0.0
2017-Jul-18 19:50N 54°47' W 001°09'0 0.0
2017-Jul-18 19:20N 54°47' W 001°09'0 0.0
2017-Jul-18 18:50N 54°47' W 001°09'0 0.0
2017-Jul-18 18:23N 54°47' W 001°09'0 0.0
2017-Jul-18 17:53N 54°47' W 001°09'0 0.0
2017-Jul-18 17:23N 54°47' W 001°09'0 0.0
2017-Jul-18 16:53N 54°47' W 001°09'0 0.0
2017-Jul-18 16:23N 54°47' W 001°09'0 0.0
2017-Jul-18 15:50N 54°47' W 001°09'0 0.0
2017-Jul-18 15:26N 54°47' W 001°09'0 0.0
2017-Jul-18 14:56N 54°47' W 001°09'0 0.1
2017-Jul-18 13:54N 54°47' W 001°09'3 7.5
2017-Jul-18 13:30N 54°45' W 001°08'6 0.3
2017-Jul-17 17:07N 54°45' W 000°58'1 8.4
2017-Jul-17 17:00N 54°45' W 000°56'5 9.9
2017-Jul-17 16:29N 54°48' W 000°49'1612.3
2017-Jul-17 15:10N 54°55' W 000°24'412.5
2017-Jul-17 14:51N 54°57' W 000°17'40212.7
2017-Jul-16 07:04N 58°02' E 010°30'113.7
2017-Jul-16 07:00N 58°03' E 010°31'713.4
2017-Jul-16 06:30N 58°06' E 010°42'713.2
2017-Jul-16 05:58N 58°09' E 010°54'613.2
2017-Jul-16 05:30N 58°12' E 011°04'612.8
2017-Jul-16 05:00N 58°16' E 011°14'510.5
2017-Jul-16 04:30N 58°19' E 011°22'3 0.2
2017-Jul-15 10:03N 58°21' E 011°26'0 0.4
2017-Jul-15 09:59N 58°21' E 011°26'2 4.6
2017-Jul-15 09:30N 58°20' E 011°23'713.8
2017-Jul-15 09:00N 58°15' E 011°13'4 8.0
2017-Jul-15 08:30N 58°11' E 011°12'0 0.1
2017-Jul-15 07:57N 58°11' E 011°12'0 0.0
2017-Jul-15 06:09N 58°11' E 011°12'0 0.0
2017-Jul-15 05:03N 58°11' E 011°12'0 0.0
2017-Jul-15 02:17N 58°11' E 011°12'0 0.0
2017-Jul-15 01:50N 58°11' E 011°12'0 0.0
2017-Jul-15 01:20N 58°11' E 011°12'0 0.0
2017-Jul-14 16:02N 58°11' E 011°12'0 1.8
2017-Jul-14 16:00N 58°11' E 011°12'610.8
2017-Jul-14 15:29N 58°06' E 011°13'613.3
2017-Jul-14 15:00N 57°59' E 011°16'713.6
2017-Jul-14 14:29N 57°53' E 011°20'713.8
2017-Jul-14 14:00N 57°46' E 011°23'713.2
2017-Jul-14 13:30N 57°40' E 011°27'612.3
2017-Jul-14 13:00N 57°36' E 011°36'510.2
2017-Jul-14 12:30N 57°39' E 011°44'5 8.9
2017-Jul-14 11:58N 57°41' E 011°52'0 0.0
2017-Jul-14 11:28N 57°41' E 011°52'0 0.0
2017-Jul-14 10:58N 57°41' E 011°52'0 0.0
2017-Jul-14 10:28N 57°41' E 011°52'0 0.0
2017-Jul-14 09:58N 57°41' E 011°52'0 0.0
2017-Jul-14 09:28N 57°41' E 011°52'0 0.0
2017-Jul-14 08:58N 57°41' E 011°52'0 0.0
2017-Jul-14 08:28N 57°41' E 011°52'0 0.0
2017-Jul-14 07:58N 57°41' E 011°52'0 0.0
2017-Jul-14 07:28N 57°41' E 011°52'0 0.0
2017-Jul-14 06:58N 57°41' E 011°52'  

Dump ship's entire track history